createdAt,value
2023-01-26T00:00:26.482Z,47.68
2023-01-26T00:01:26.470Z,41.27
2023-01-26T00:02:26.482Z,47.57
2023-01-26T00:03:26.511Z,47.86
2023-01-26T00:04:26.473Z,52.83
2023-01-26T00:05:26.444Z,43.05
2023-01-26T00:06:26.433Z,45.67
2023-01-26T00:07:26.425Z,46.51
2023-01-26T00:08:26.421Z,53.26
2023-01-26T00:09:26.441Z,50.61
2023-01-26T00:10:26.405Z,45.99
2023-01-26T00:11:26.401Z,50.20
2023-01-26T00:12:26.393Z,54.40
2023-01-26T00:13:26.392Z,56.83
2023-01-26T00:14:26.400Z,58.69
2023-01-26T00:15:26.384Z,53.11
2023-01-26T00:16:26.482Z,50.50
2023-01-26T00:17:26.456Z,51.99
2023-01-26T00:18:26.352Z,55.90
2023-01-26T00:19:26.365Z,48.77
2023-01-26T00:20:27.334Z,51.49
2023-01-26T00:21:26.321Z,58.18
2023-01-26T00:22:26.319Z,43.07
2023-01-26T00:23:26.310Z,46.81
2023-01-26T00:24:26.330Z,58.38
2023-01-26T00:25:26.293Z,52.05
2023-01-26T00:26:26.285Z,61.04
2023-01-26T00:27:26.286Z,43.21
2023-01-26T00:28:26.277Z,42.48
2023-01-26T00:29:26.292Z,52.33
2023-01-26T00:30:26.287Z,55.21
2023-01-26T00:31:26.305Z,57.11
2023-01-26T00:32:26.240Z,56.36
2023-01-26T00:33:26.234Z,51.66
2023-01-26T00:34:26.248Z,42.00
2023-01-26T00:35:26.225Z,47.12
2023-01-26T00:36:26.223Z,51.96
2023-01-26T00:37:26.208Z,56.86
2023-01-26T00:38:26.206Z,45.66
2023-01-26T00:39:26.219Z,44.68
2023-01-26T00:40:26.187Z,46.61
2023-01-26T00:41:26.174Z,46.09
2023-01-26T00:42:26.173Z,41.73
2023-01-26T00:43:26.163Z,42.12
2023-01-26T00:44:26.199Z,44.69
2023-01-26T00:45:26.143Z,51.48
2023-01-26T00:46:26.184Z,54.46
2023-01-26T00:47:26.133Z,50.12
2023-01-26T00:48:26.126Z,54.01
2023-01-26T00:49:26.143Z,52.79
2023-01-26T00:50:26.109Z,56.88
2023-01-26T00:51:26.099Z,45.92
2023-01-26T00:52:26.091Z,42.55
2023-01-26T00:53:26.095Z,47.34
2023-01-26T00:54:26.114Z,46.84
2023-01-26T00:55:26.076Z,49.79
2023-01-26T00:56:26.068Z,57.62
2023-01-26T00:57:26.063Z,57.10
2023-01-26T00:58:26.054Z,43.79
2023-01-26T00:59:26.088Z,49.49
2023-01-26T01:00:26.052Z,55.89
2023-01-26T01:01:26.028Z,50.33
2023-01-26T01:02:26.026Z,53.29
2023-01-26T01:03:26.021Z,43.20
2023-01-26T01:04:26.008Z,49.21
2023-01-26T01:05:26.037Z,55.59
2023-01-26T01:06:26.091Z,44.12
2023-01-26T01:07:25.992Z,45.33
2023-01-26T01:08:25.975Z,61.05
2023-01-26T01:09:25.968Z,52.56
2023-01-26T01:10:25.985Z,42.40
2023-01-26T01:11:25.955Z,46.04
2023-01-26T01:12:25.945Z,50.40
2023-01-26T01:13:25.935Z,54.07
2023-01-26T01:14:25.938Z,54.61
2023-01-26T01:15:25.952Z,45.71
2023-01-26T01:16:25.965Z,43.61
2023-01-26T01:17:25.912Z,50.85
2023-01-26T01:18:25.911Z,46.07
2023-01-26T01:19:25.910Z,41.92
2023-01-26T01:20:25.916Z,48.61
2023-01-26T01:21:25.884Z,51.09
2023-01-26T01:22:25.875Z,43.26
2023-01-26T01:23:25.868Z,55.09
2023-01-26T01:24:25.867Z,52.86
2023-01-26T01:25:25.888Z,42.41
2023-01-26T01:26:25.847Z,53.36
2023-01-26T01:27:25.842Z,51.11
2023-01-26T01:28:25.826Z,46.60
2023-01-26T01:29:25.823Z,42.62
2023-01-26T01:30:25.841Z,52.65
2023-01-26T01:31:25.890Z,50.25
2023-01-26T01:32:25.802Z,50.50
2023-01-26T01:33:25.800Z,43.05
2023-01-26T01:34:25.785Z,51.80
2023-01-26T01:35:25.804Z,55.41
2023-01-26T01:36:25.772Z,47.33
2023-01-26T01:37:25.759Z,46.08
2023-01-26T01:38:25.755Z,49.36
2023-01-26T01:39:25.748Z,45.84
2023-01-26T01:40:25.770Z,48.95
2023-01-26T01:41:25.735Z,47.58
2023-01-26T01:42:25.728Z,49.28
2023-01-26T01:43:25.738Z,46.66
2023-01-26T01:44:25.713Z,62.91
2023-01-26T01:45:25.804Z,59.51
2023-01-26T01:46:25.775Z,45.38
2023-01-26T01:47:25.691Z,45.81
2023-01-26T01:48:25.689Z,41.85
2023-01-26T01:49:25.687Z,47.23
2023-01-26T01:50:25.692Z,56.54
2023-01-26T01:51:25.664Z,48.51
2023-01-26T01:52:25.644Z,43.20
2023-01-26T01:53:25.653Z,59.53
2023-01-26T01:54:25.647Z,49.80
2023-01-26T01:55:25.716Z,45.53
2023-01-26T01:56:25.622Z,45.47
2023-01-26T01:57:25.617Z,55.43
2023-01-26T01:58:25.608Z,42.71
2023-01-26T01:59:25.601Z,45.20
2023-01-26T02:00:25.619Z,51.11
2023-01-26T02:01:25.616Z,42.89
2023-01-26T02:02:25.577Z,55.81
2023-01-26T02:03:25.569Z,57.72
2023-01-26T02:04:25.576Z,55.95
2023-01-26T02:05:25.610Z,47.38
2023-01-26T02:06:25.554Z,52.39
2023-01-26T02:07:25.543Z,51.38
2023-01-26T02:08:25.541Z,54.94
2023-01-26T02:09:25.530Z,49.52
2023-01-26T02:10:25.556Z,49.28
2023-01-26T02:11:25.543Z,42.39
2023-01-26T02:12:25.527Z,49.43
2023-01-26T02:13:25.563Z,55.58
2023-01-26T02:14:25.533Z,45.59
2023-01-26T02:15:25.520Z,50.07
2023-01-26T02:16:25.542Z,46.38
2023-01-26T02:17:25.467Z,45.23
2023-01-26T02:18:25.498Z,50.28
2023-01-26T02:19:25.461Z,53.13
2023-01-26T02:20:25.473Z,53.93
2023-01-26T02:21:25.441Z,47.51
2023-01-26T02:22:25.431Z,47.33
2023-01-26T02:23:25.424Z,57.65
2023-01-26T02:24:25.480Z,55.78
2023-01-26T02:25:25.438Z,49.62
2023-01-26T02:26:25.407Z,43.85
2023-01-26T02:27:25.398Z,56.06
2023-01-26T02:28:25.405Z,51.06
2023-01-26T02:29:25.383Z,42.52
2023-01-26T02:30:25.403Z,45.67
2023-01-26T02:31:25.417Z,58.15
2023-01-26T02:32:25.353Z,47.49
2023-01-26T02:33:25.352Z,50.75
2023-01-26T02:34:25.345Z,51.60
2023-01-26T02:35:25.358Z,49.70
2023-01-26T02:36:25.329Z,44.74
2023-01-26T02:37:25.329Z,45.23
2023-01-26T02:38:25.315Z,43.44
2023-01-26T02:39:26.312Z,47.27
2023-01-26T02:40:25.331Z,47.76
2023-01-26T02:41:25.293Z,50.15
2023-01-26T02:42:25.287Z,41.58
2023-01-26T02:43:25.278Z,46.44
2023-01-26T02:44:25.289Z,46.42
2023-01-26T02:45:25.299Z,41.71
2023-01-26T02:46:25.272Z,53.09
2023-01-26T02:47:25.250Z,50.03
2023-01-26T02:48:25.241Z,48.84
2023-01-26T02:49:25.251Z,48.53
2023-01-26T02:50:25.243Z,52.64
2023-01-26T02:51:25.229Z,42.28
2023-01-26T02:52:25.219Z,46.19
2023-01-26T02:53:25.207Z,46.08
2023-01-26T02:54:25.190Z,45.97
2023-01-26T02:55:25.286Z,43.73
2023-01-26T02:56:25.174Z,59.30
2023-01-26T02:57:25.177Z,46.64
2023-01-26T02:58:25.162Z,50.59
2023-01-26T02:59:25.151Z,47.51
2023-01-26T03:00:25.173Z,56.41
2023-01-26T03:01:25.146Z,55.31
2023-01-26T03:02:25.197Z,52.17
2023-01-26T03:03:25.131Z,53.19
2023-01-26T03:04:25.118Z,45.72
2023-01-26T03:05:25.141Z,50.11
2023-01-26T03:06:25.108Z,46.55
2023-01-26T03:07:25.097Z,44.85
2023-01-26T03:08:25.091Z,42.53
2023-01-26T03:09:25.087Z,52.87
2023-01-26T03:10:25.105Z,45.23
2023-01-26T03:11:25.069Z,61.82
2023-01-26T03:12:25.062Z,45.11
2023-01-26T03:13:25.054Z,55.45
2023-01-26T03:14:25.044Z,50.24
2023-01-26T03:15:25.071Z,43.04
2023-01-26T03:16:25.178Z,54.39
2023-01-26T03:17:25.025Z,49.41
2023-01-26T03:18:25.013Z,51.76
2023-01-26T03:19:25.009Z,44.27
2023-01-26T03:20:24.999Z,59.31
2023-01-26T03:21:25.034Z,49.19
2023-01-26T03:22:24.985Z,56.34
2023-01-26T03:23:24.981Z,52.21
2023-01-26T03:24:24.991Z,48.39
2023-01-26T03:25:24.965Z,49.14
2023-01-26T03:26:24.985Z,49.46
2023-01-26T03:27:24.941Z,51.47
2023-01-26T03:28:25.937Z,43.11
2023-01-26T03:29:24.937Z,50.09
2023-01-26T03:30:24.954Z,55.45
2023-01-26T03:31:24.965Z,50.31
2023-01-26T03:32:24.910Z,52.00
2023-01-26T03:33:24.912Z,52.54
2023-01-26T03:34:24.901Z,56.71
2023-01-26T03:35:24.888Z,45.66
2023-01-26T03:36:24.911Z,53.99
2023-01-26T03:37:24.886Z,59.15
2023-01-26T03:38:24.870Z,54.41
2023-01-26T03:39:24.854Z,52.25
2023-01-26T03:40:24.853Z,44.35
2023-01-26T03:41:24.871Z,55.31
2023-01-26T03:42:24.843Z,50.41
2023-01-26T03:43:24.831Z,55.14
2023-01-26T03:44:24.818Z,57.12
2023-01-26T03:45:24.817Z,50.31
2023-01-26T03:46:24.832Z,57.45
2023-01-26T03:47:24.807Z,48.14
2023-01-26T03:48:24.794Z,57.24
2023-01-26T03:49:24.782Z,55.95
2023-01-26T03:50:24.780Z,52.84
2023-01-26T03:51:24.793Z,60.86
2023-01-26T03:52:24.766Z,51.39
2023-01-26T03:53:24.750Z,55.59
2023-01-26T03:54:24.744Z,59.10
2023-01-26T03:55:24.741Z,54.84
2023-01-26T03:56:24.758Z,57.66
2023-01-26T03:57:24.727Z,54.33
2023-01-26T03:58:24.724Z,54.44
2023-01-26T03:59:24.713Z,59.06
2023-01-26T04:00:24.703Z,53.15
2023-01-26T04:01:24.724Z,56.34
2023-01-26T04:02:24.831Z,52.07
2023-01-26T04:03:24.686Z,51.71
2023-01-26T04:04:24.676Z,57.89
2023-01-26T04:05:24.676Z,56.57
2023-01-26T04:06:24.703Z,53.73
2023-01-26T04:07:24.663Z,53.34
2023-01-26T04:08:24.686Z,48.07
2023-01-26T04:09:24.638Z,61.74
2023-01-26T04:10:24.634Z,52.96
2023-01-26T04:11:24.666Z,52.76
2023-01-26T04:12:24.618Z,57.53
2023-01-26T04:13:24.614Z,49.17
2023-01-26T04:14:24.604Z,50.54
2023-01-26T04:15:24.598Z,56.37
2023-01-26T04:16:24.615Z,61.32
2023-01-26T04:17:24.613Z,59.79
2023-01-26T04:18:24.575Z,54.66
2023-01-26T04:19:24.570Z,61.78
2023-01-26T04:20:24.612Z,55.61
2023-01-26T04:21:24.555Z,59.37
2023-01-26T04:22:24.574Z,57.97
2023-01-26T04:23:24.601Z,57.74
2023-01-26T04:24:24.759Z,60.41
2023-01-26T04:25:24.522Z,57.58
2023-01-26T04:26:24.513Z,56.27
2023-01-26T04:27:24.533Z,54.33
2023-01-26T04:28:24.500Z,57.27
2023-01-26T04:29:24.490Z,58.87
2023-01-26T04:30:24.520Z,60.93
2023-01-26T04:31:24.481Z,58.80
2023-01-26T04:32:24.501Z,58.18
2023-01-26T04:33:24.464Z,62.51
2023-01-26T04:34:24.462Z,59.41
2023-01-26T04:35:24.448Z,59.15
2023-01-26T04:36:24.441Z,61.80
2023-01-26T04:37:24.457Z,59.33
2023-01-26T04:38:24.424Z,54.74
2023-01-26T04:39:24.423Z,59.67
2023-01-26T04:40:24.405Z,59.03
2023-01-26T04:41:24.403Z,53.12
2023-01-26T04:42:24.416Z,59.46
2023-01-26T04:43:24.386Z,58.31
2023-01-26T04:44:24.381Z,58.00
2023-01-26T04:45:24.377Z,55.68
2023-01-26T04:46:24.363Z,58.27
2023-01-26T04:47:24.379Z,62.27
2023-01-26T04:48:24.345Z,59.63
2023-01-26T04:49:24.336Z,58.74
2023-01-26T04:50:24.333Z,61.66
2023-01-26T04:51:24.323Z,57.79
2023-01-26T04:52:24.342Z,56.11
2023-01-26T04:53:24.314Z,59.48
2023-01-26T04:54:24.293Z,56.86
2023-01-26T04:55:24.296Z,60.61
2023-01-26T04:56:24.286Z,58.48
2023-01-26T04:57:24.302Z,54.44
2023-01-26T04:58:24.273Z,59.03
2023-01-26T04:59:24.267Z,59.44
2023-01-26T05:00:24.261Z,55.88
2023-01-26T05:01:24.294Z,58.97
2023-01-26T05:02:24.276Z,55.92
2023-01-26T05:03:24.240Z,61.02
2023-01-26T05:04:24.284Z,62.14
2023-01-26T05:05:24.220Z,56.66
2023-01-26T05:06:24.225Z,56.81
2023-01-26T05:07:24.242Z,62.88
2023-01-26T05:08:24.207Z,63.65
2023-01-26T05:09:24.203Z,59.67
2023-01-26T05:10:24.191Z,60.72
2023-01-26T05:11:24.189Z,61.63
2023-01-26T05:12:24.208Z,62.08
2023-01-26T05:13:24.169Z,54.79
2023-01-26T05:14:24.159Z,62.08
2023-01-26T05:15:24.145Z,61.00
2023-01-26T05:16:24.161Z,60.90
2023-01-26T05:17:24.157Z,55.48
2023-01-26T05:18:24.124Z,54.20
2023-01-26T05:19:24.121Z,59.35
2023-01-26T05:20:24.115Z,63.60
2023-01-26T05:21:24.118Z,61.27
2023-01-26T05:22:24.134Z,59.01
2023-01-26T05:23:24.090Z,58.59
2023-01-26T05:24:24.102Z,58.54
2023-01-26T05:25:24.080Z,57.30
2023-01-26T05:26:24.077Z,60.18
2023-01-26T05:27:24.097Z,63.12
2023-01-26T05:28:24.052Z,59.85
2023-01-26T05:29:24.044Z,59.31
2023-01-26T05:30:24.039Z,63.31
2023-01-26T05:31:24.070Z,63.17
2023-01-26T05:32:24.069Z,61.64
2023-01-26T05:33:24.019Z,62.11
2023-01-26T05:34:24.002Z,63.23
2023-01-26T05:35:25.001Z,61.91
2023-01-26T05:36:24.026Z,66.03
2023-01-26T05:37:24.014Z,60.74
2023-01-26T05:38:23.992Z,62.02
2023-01-26T05:39:23.978Z,65.04
2023-01-26T05:40:23.963Z,61.75
2023-01-26T05:41:23.961Z,65.41
2023-01-26T05:42:23.984Z,64.76
2023-01-26T05:43:23.948Z,63.37
2023-01-26T05:44:23.933Z,61.74
2023-01-26T05:45:23.934Z,62.17
2023-01-26T05:46:23.918Z,65.25
2023-01-26T05:47:23.946Z,60.98
2023-01-26T05:48:23.903Z,65.83
2023-01-26T05:49:23.901Z,64.05
2023-01-26T05:50:23.886Z,62.25
2023-01-26T05:51:23.879Z,65.75
2023-01-26T05:52:23.903Z,66.24
2023-01-26T05:53:23.916Z,66.91
2023-01-26T05:54:23.867Z,63.49
2023-01-26T05:55:23.856Z,67.07
2023-01-26T05:56:23.848Z,67.68
2023-01-26T05:57:23.881Z,65.39
2023-01-26T05:58:23.840Z,63.22
2023-01-26T05:59:23.829Z,65.04
2023-01-26T06:00:23.822Z,63.35
2023-01-26T06:01:23.816Z,65.57
2023-01-26T06:02:23.900Z,62.87
2023-01-26T06:03:23.800Z,63.34
2023-01-26T06:04:23.874Z,61.12
2023-01-26T06:05:23.787Z,63.65
2023-01-26T06:06:23.793Z,66.94
2023-01-26T06:07:23.768Z,63.95
2023-01-26T06:08:23.799Z,62.95
2023-01-26T06:09:26.373Z,60.69
2023-01-26T06:10:23.753Z,64.35
2023-01-26T06:11:23.740Z,65.49
2023-01-26T06:12:23.727Z,65.65
2023-01-26T06:13:23.747Z,62.99
2023-01-26T06:14:23.715Z,65.22
2023-01-26T06:15:23.712Z,64.62
2023-01-26T06:16:23.762Z,64.10
2023-01-26T06:17:23.695Z,65.87
2023-01-26T06:18:23.709Z,63.81
2023-01-26T06:19:23.681Z,65.70
2023-01-26T06:20:23.672Z,62.69
2023-01-26T06:21:23.669Z,63.34
2023-01-26T06:22:23.679Z,66.61
2023-01-26T06:23:23.687Z,62.84
2023-01-26T06:24:23.673Z,63.98
2023-01-26T06:25:23.640Z,67.57
2023-01-26T06:26:23.628Z,65.57
2023-01-26T06:27:23.621Z,63.85
2023-01-26T06:28:23.637Z,64.30
2023-01-26T06:29:23.604Z,66.44
2023-01-26T06:30:23.612Z,66.58
2023-01-26T06:31:23.677Z,66.02
2023-01-26T06:32:23.588Z,64.10
2023-01-26T06:33:23.618Z,68.30
2023-01-26T06:34:23.579Z,67.48
2023-01-26T06:35:23.560Z,68.17
2023-01-26T06:36:23.549Z,64.98
2023-01-26T06:37:23.547Z,65.66
2023-01-26T06:38:23.570Z,68.58
2023-01-26T06:39:23.536Z,68.06
2023-01-26T06:40:23.523Z,63.59
2023-01-26T06:41:23.521Z,64.78
2023-01-26T06:42:23.517Z,63.60
2023-01-26T06:43:23.530Z,64.07
2023-01-26T06:44:23.490Z,65.69
2023-01-26T06:45:23.496Z,66.65
2023-01-26T06:46:23.531Z,62.03
2023-01-26T06:47:23.470Z,64.11
2023-01-26T06:48:23.488Z,63.58
2023-01-26T06:49:23.459Z,65.09
2023-01-26T06:50:23.445Z,63.93
2023-01-26T06:51:23.437Z,66.59
2023-01-26T06:52:23.430Z,69.33
2023-01-26T06:53:23.452Z,59.51
2023-01-26T06:54:23.420Z,64.88
2023-01-26T06:55:23.405Z,66.15
2023-01-26T06:56:23.404Z,63.62
2023-01-26T06:57:23.389Z,63.68
2023-01-26T06:58:23.547Z,65.33
2023-01-26T06:59:23.377Z,62.78
2023-01-26T07:00:23.372Z,63.40
2023-01-26T07:01:23.436Z,64.30
2023-01-26T07:02:23.413Z,63.07
2023-01-26T07:03:23.370Z,64.84
2023-01-26T07:04:23.369Z,66.20
2023-01-26T07:05:23.397Z,63.03
2023-01-26T07:06:23.339Z,64.31
2023-01-26T07:07:23.330Z,66.07
2023-01-26T07:08:23.349Z,63.07
2023-01-26T07:09:23.307Z,64.89
2023-01-26T07:10:23.306Z,65.42
2023-01-26T07:11:23.301Z,66.30
2023-01-26T07:12:23.289Z,64.19
2023-01-26T07:13:23.281Z,63.52
2023-01-26T07:14:23.308Z,61.67
2023-01-26T07:15:23.266Z,63.28
2023-01-26T07:16:23.315Z,64.45
2023-01-26T07:17:23.247Z,61.94
2023-01-26T07:18:23.249Z,63.20
2023-01-26T07:19:23.259Z,58.65
2023-01-26T07:20:23.231Z,63.89
2023-01-26T07:21:23.280Z,64.92
2023-01-26T07:22:23.215Z,59.36
2023-01-26T07:23:23.208Z,61.73
2023-01-26T07:24:23.266Z,65.45
2023-01-26T07:25:23.197Z,64.57
2023-01-26T07:26:23.176Z,62.44
2023-01-26T07:27:23.177Z,62.69
2023-01-26T07:28:23.168Z,64.31
2023-01-26T07:29:23.180Z,58.47
2023-01-26T07:30:23.159Z,61.29
2023-01-26T07:31:23.230Z,63.87
2023-01-26T07:32:23.143Z,61.69
2023-01-26T07:33:23.130Z,63.93
2023-01-26T07:34:23.145Z,62.63
2023-01-26T07:35:23.111Z,64.38
2023-01-26T07:36:23.107Z,62.44
2023-01-26T07:37:23.097Z,60.40
2023-01-26T07:38:23.091Z,63.93
2023-01-26T07:39:23.116Z,65.89
2023-01-26T07:40:23.075Z,65.12
2023-01-26T07:41:23.067Z,64.54
2023-01-26T07:42:23.061Z,61.19
2023-01-26T07:43:23.077Z,60.95
2023-01-26T07:44:23.078Z,69.59
2023-01-26T07:45:23.036Z,63.85
2023-01-26T07:46:23.039Z,64.70
2023-01-26T07:47:23.021Z,62.73
2023-01-26T07:48:23.041Z,61.12
2023-01-26T07:49:23.034Z,64.42
2023-01-26T07:50:23.003Z,62.88
2023-01-26T07:51:22.991Z,64.31
2023-01-26T07:52:22.986Z,56.90
2023-01-26T07:53:23.186Z,66.45
2023-01-26T07:54:22.983Z,59.92
2023-01-26T07:55:23.956Z,65.05
2023-01-26T07:56:22.955Z,63.85
2023-01-26T07:57:22.944Z,64.85
2023-01-26T07:58:22.936Z,63.27
2023-01-26T07:59:22.960Z,59.30
2023-01-26T08:00:22.924Z,65.11
2023-01-26T08:01:23.034Z,61.59
2023-01-26T08:02:22.910Z,61.68
2023-01-26T08:03:22.899Z,61.49
2023-01-26T08:04:22.924Z,61.04
2023-01-26T08:05:22.887Z,62.06
2023-01-26T08:06:22.872Z,60.69
2023-01-26T08:07:22.864Z,60.28
2023-01-26T08:08:22.858Z,55.77
2023-01-26T08:09:22.879Z,61.76
2023-01-26T08:10:22.845Z,62.86
2023-01-26T08:11:22.841Z,63.02
2023-01-26T08:12:22.833Z,62.00
2023-01-26T08:13:34.468Z,62.41
2023-01-26T08:14:24.852Z,58.64
2023-01-26T08:15:22.828Z,64.97
2023-01-26T08:16:22.884Z,62.70
2023-01-26T08:17:22.798Z,62.65
2023-01-26T08:18:22.785Z,61.73
2023-01-26T08:19:22.811Z,62.20
2023-01-26T08:20:22.788Z,63.98
2023-01-26T08:21:22.773Z,61.97
2023-01-26T08:22:22.762Z,63.73
2023-01-26T08:23:22.755Z,64.30
2023-01-26T08:24:22.791Z,61.03
2023-01-26T08:25:22.770Z,65.77
2023-01-26T08:26:22.788Z,66.05
2023-01-26T08:27:22.721Z,63.29
2023-01-26T08:28:22.718Z,65.72
2023-01-26T08:29:22.708Z,69.16
2023-01-26T08:30:22.721Z,60.41
2023-01-26T08:31:22.870Z,63.78
2023-01-26T08:32:22.687Z,65.30
2023-01-26T08:33:22.678Z,62.55
2023-01-26T08:34:22.667Z,63.70
2023-01-26T08:35:22.685Z,59.16
2023-01-26T08:36:23.077Z,63.26
2023-01-26T08:37:22.648Z,60.98
2023-01-26T08:38:22.642Z,56.16
2023-01-26T08:39:22.628Z,65.16
2023-01-26T08:40:22.652Z,65.20
2023-01-26T08:41:22.617Z,64.92
2023-01-26T08:42:22.962Z,63.46
2023-01-26T08:43:23.601Z,63.74
2023-01-26T08:44:22.591Z,63.38
2023-01-26T08:45:22.614Z,58.47
2023-01-26T08:46:22.584Z,63.08
2023-01-26T08:47:22.574Z,64.66
2023-01-26T08:48:22.576Z,60.32
2023-01-26T08:49:22.568Z,60.18
2023-01-26T08:50:22.575Z,64.35
2023-01-26T08:51:22.545Z,62.94
2023-01-26T08:52:22.553Z,64.42
2023-01-26T08:53:22.528Z,60.96
2023-01-26T08:54:22.530Z,61.10
2023-01-26T08:55:22.541Z,62.76
2023-01-26T08:56:22.529Z,55.91
2023-01-26T08:57:22.520Z,63.84
2023-01-26T08:58:22.502Z,62.66
2023-01-26T08:59:22.489Z,63.15
2023-01-26T09:00:22.498Z,57.14
2023-01-26T09:01:22.491Z,65.95
2023-01-26T09:02:22.494Z,65.74
2023-01-26T09:03:22.506Z,65.88
2023-01-26T09:04:22.452Z,62.08
2023-01-26T09:05:22.464Z,58.41
2023-01-26T09:06:22.437Z,62.30
2023-01-26T09:07:22.431Z,65.51
2023-01-26T09:08:22.413Z,64.42
2023-01-26T09:09:22.415Z,63.42
2023-01-26T09:10:22.432Z,63.81
2023-01-26T09:11:22.391Z,63.62
2023-01-26T09:12:22.392Z,59.01
2023-01-26T09:13:22.383Z,64.51
2023-01-26T09:14:22.370Z,64.92
2023-01-26T09:15:22.390Z,62.68
2023-01-26T09:16:22.393Z,61.92
2023-01-26T09:17:22.355Z,62.91
2023-01-26T09:18:22.360Z,65.00
2023-01-26T09:19:22.323Z,63.47
2023-01-26T09:20:23.433Z,64.81
2023-01-26T09:21:22.319Z,64.64
2023-01-26T09:22:22.314Z,65.30
2023-01-26T09:23:22.303Z,64.77
2023-01-26T09:24:22.357Z,65.21
2023-01-26T09:25:22.323Z,60.12
2023-01-26T09:26:22.289Z,70.44
2023-01-26T09:27:22.276Z,63.96
2023-01-26T09:28:22.269Z,60.09
2023-01-26T09:29:22.260Z,67.11
2023-01-26T09:30:22.280Z,61.73
2023-01-26T09:31:22.330Z,63.12
2023-01-26T09:32:22.246Z,59.74
2023-01-26T09:33:22.233Z,64.41
2023-01-26T09:34:22.220Z,58.63
2023-01-26T09:35:22.211Z,62.84
2023-01-26T09:36:22.236Z,61.76
2023-01-26T09:37:22.199Z,65.86
2023-01-26T09:38:22.192Z,62.18
2023-01-26T09:39:22.196Z,64.62
2023-01-26T09:40:22.253Z,63.16
2023-01-26T09:41:23.190Z,70.21
2023-01-26T09:42:22.162Z,61.62
2023-01-26T09:43:22.160Z,64.01
2023-01-26T09:44:22.161Z,63.34
2023-01-26T09:45:22.182Z,65.77
2023-01-26T09:46:22.206Z,65.83
2023-01-26T09:47:22.148Z,63.66
2023-01-26T09:48:25.189Z,65.69
2023-01-26T09:49:22.119Z,62.47
2023-01-26T09:50:22.104Z,63.79
2023-01-26T09:51:22.137Z,61.71
2023-01-26T09:52:22.092Z,61.81
2023-01-26T09:53:22.077Z,64.35
2023-01-26T09:54:22.086Z,59.57
2023-01-26T09:55:22.075Z,61.75
2023-01-26T09:56:22.112Z,65.38
2023-01-26T09:57:22.055Z,64.84
2023-01-26T09:58:22.049Z,61.46
2023-01-26T09:59:22.040Z,63.86
2023-01-26T10:00:22.037Z,65.42
2023-01-26T10:01:22.133Z,60.71
2023-01-26T10:02:22.083Z,63.48
2023-01-26T10:03:22.032Z,61.74
2023-01-26T10:04:22.006Z,67.20
2023-01-26T10:05:22.010Z,63.87
2023-01-26T10:06:22.004Z,65.23
2023-01-26T10:07:21.993Z,66.30
2023-01-26T10:08:21.977Z,63.17
2023-01-26T10:09:21.976Z,62.42
2023-01-26T10:10:21.955Z,59.43
2023-01-26T10:11:21.994Z,60.02
2023-01-26T10:12:21.940Z,62.87
2023-01-26T10:13:21.933Z,60.92
2023-01-26T10:14:21.924Z,63.92
2023-01-26T10:15:21.927Z,64.98
2023-01-26T10:16:21.936Z,62.15
2023-01-26T10:17:21.906Z,60.91
2023-01-26T10:18:21.899Z,58.42
2023-01-26T10:19:21.913Z,67.82
2023-01-26T10:20:21.883Z,63.99
2023-01-26T10:21:21.910Z,65.37
2023-01-26T10:22:21.873Z,63.35
2023-01-26T10:23:21.945Z,65.24
2023-01-26T10:24:21.962Z,62.93
2023-01-26T10:25:22.910Z,61.68
2023-01-26T10:26:21.864Z,59.81
2023-01-26T10:27:21.829Z,65.18
2023-01-26T10:28:21.818Z,65.54
2023-01-26T10:29:21.839Z,64.40
2023-01-26T10:30:21.849Z,61.99
2023-01-26T10:31:21.891Z,64.14
2023-01-26T10:32:22.799Z,64.34
2023-01-26T10:33:21.797Z,60.22
2023-01-26T10:34:21.779Z,64.87
2023-01-26T10:35:21.776Z,61.91
2023-01-26T10:36:21.809Z,59.40
2023-01-26T10:37:21.772Z,67.68
2023-01-26T10:38:21.749Z,62.72
2023-01-26T10:39:21.745Z,61.53
2023-01-26T10:40:21.805Z,63.76
2023-01-26T10:41:21.753Z,58.63
2023-01-26T10:42:21.717Z,62.98
2023-01-26T10:43:21.717Z,63.10
2023-01-26T10:44:21.711Z,58.89
2023-01-26T10:45:21.697Z,62.71
2023-01-26T10:46:21.738Z,61.28
2023-01-26T10:47:21.692Z,60.20
2023-01-26T10:48:21.671Z,63.32
2023-01-26T10:49:21.664Z,61.32
2023-01-26T10:50:21.685Z,58.68
2023-01-26T10:51:21.683Z,62.82
2023-01-26T10:52:21.727Z,60.48
2023-01-26T10:53:21.643Z,54.73
2023-01-26T10:54:21.641Z,60.32
2023-01-26T10:55:21.614Z,59.11
2023-01-26T10:56:21.614Z,57.88
2023-01-26T10:57:21.638Z,63.77
2023-01-26T10:58:21.596Z,59.96
2023-01-26T10:59:21.597Z,59.05
2023-01-26T11:00:21.587Z,63.40
2023-01-26T11:01:21.622Z,62.36
2023-01-26T11:02:21.602Z,62.15
2023-01-26T11:03:21.570Z,61.88
2023-01-26T11:04:21.564Z,61.74
2023-01-26T11:05:21.560Z,61.31
2023-01-26T11:06:21.547Z,60.66
2023-01-26T11:07:21.559Z,63.13
2023-01-26T11:08:21.537Z,62.13
2023-01-26T11:09:21.528Z,65.54
2023-01-26T11:10:21.512Z,55.66
2023-01-26T11:11:21.504Z,64.31
2023-01-26T11:12:21.525Z,62.02
2023-01-26T11:13:21.497Z,62.95
2023-01-26T11:14:21.488Z,62.87
2023-01-26T11:15:21.474Z,61.86
2023-01-26T11:16:21.558Z,65.32
2023-01-26T11:17:21.497Z,60.73
2023-01-26T11:18:21.450Z,63.93
2023-01-26T11:19:21.453Z,57.24
2023-01-26T11:20:21.438Z,63.07
2023-01-26T11:21:21.431Z,61.81
2023-01-26T11:22:21.465Z,63.70
2023-01-26T11:23:21.416Z,62.70
2023-01-26T11:24:21.538Z,63.30
2023-01-26T11:25:21.409Z,59.79
2023-01-26T11:26:21.403Z,64.70
2023-01-26T11:27:21.411Z,63.39
2023-01-26T11:28:21.380Z,66.09
2023-01-26T11:29:21.545Z,62.61
2023-01-26T11:30:21.364Z,64.53
2023-01-26T11:31:21.386Z,63.21
2023-01-26T11:32:21.367Z,65.73
2023-01-26T11:33:21.336Z,60.91
2023-01-26T11:34:21.334Z,62.89
2023-01-26T11:35:21.323Z,60.73
2023-01-26T11:36:21.317Z,60.39
2023-01-26T11:37:21.329Z,66.99
2023-01-26T11:38:21.307Z,61.81
2023-01-26T11:39:21.292Z,62.93
2023-01-26T11:40:21.280Z,62.13
2023-01-26T11:41:21.280Z,61.92
2023-01-26T11:42:21.300Z,64.00
2023-01-26T11:43:21.266Z,65.45
2023-01-26T11:44:21.251Z,63.09
2023-01-26T11:45:21.325Z,62.67
2023-01-26T11:46:21.247Z,66.55
2023-01-26T11:47:21.260Z,65.52
2023-01-26T11:48:21.223Z,60.08
2023-01-26T11:49:21.221Z,62.15
2023-01-26T11:50:21.207Z,63.09
2023-01-26T11:51:21.199Z,63.54
2023-01-26T11:52:21.216Z,62.56
2023-01-26T11:53:21.183Z,65.40
2023-01-26T11:54:21.176Z,64.73
2023-01-26T11:55:21.166Z,64.10
2023-01-26T11:56:21.164Z,65.33
2023-01-26T11:57:21.183Z,64.21
2023-01-26T11:58:21.152Z,64.01
2023-01-26T11:59:21.139Z,64.00
2023-01-26T12:00:30.017Z,62.84
2023-01-26T12:01:23.125Z,63.54
2023-01-26T12:02:21.224Z,64.34
2023-01-26T12:03:21.141Z,63.64
2023-01-26T12:04:21.132Z,64.30
2023-01-26T12:05:21.096Z,61.32
2023-01-26T12:06:21.088Z,60.89
2023-01-26T12:07:21.102Z,64.24
2023-01-26T12:08:21.081Z,60.60
2023-01-26T12:09:21.068Z,64.72
2023-01-26T12:10:21.066Z,61.33
2023-01-26T12:11:21.048Z,64.33
2023-01-26T12:12:21.071Z,65.39
2023-01-26T12:13:21.047Z,62.67
2023-01-26T12:14:21.025Z,66.38
2023-01-26T12:15:21.023Z,64.49
2023-01-26T12:16:21.023Z,65.63
2023-01-26T12:17:21.063Z,61.36
2023-01-26T12:18:21.000Z,70.78
2023-01-26T12:19:21.033Z,65.52
2023-01-26T12:20:21.452Z,61.88
2023-01-26T12:21:21.973Z,64.37
2023-01-26T12:22:21.013Z,65.44
2023-01-26T12:23:20.963Z,62.31
2023-01-26T12:24:48.465Z,66.29
2023-01-26T12:25:22.949Z,62.93
2023-01-26T12:26:20.953Z,62.80
2023-01-26T12:27:20.957Z,65.93
2023-01-26T12:28:20.924Z,64.43
2023-01-26T12:29:20.915Z,61.37
2023-01-26T12:30:20.960Z,63.71
2023-01-26T12:31:21.074Z,65.35
2023-01-26T12:32:20.925Z,63.76
2023-01-26T12:33:20.889Z,63.35
2023-01-26T12:34:20.876Z,65.74
2023-01-26T12:35:20.870Z,61.88
2023-01-26T12:36:20.865Z,63.44
2023-01-26T12:37:20.885Z,63.95
2023-01-26T12:38:20.852Z,67.76
2023-01-26T12:39:20.844Z,63.46
2023-01-26T12:40:20.836Z,64.90
2023-01-26T12:41:20.825Z,65.36
2023-01-26T12:42:20.816Z,67.15
2023-01-26T12:43:20.834Z,66.07
2023-01-26T12:44:20.802Z,65.24
2023-01-26T12:45:20.798Z,63.20
2023-01-26T12:46:20.802Z,62.43
2023-01-26T12:47:20.779Z,63.61
2023-01-26T12:48:20.794Z,64.25
2023-01-26T12:49:20.771Z,61.88
2023-01-26T12:50:20.796Z,61.72
2023-01-26T12:51:20.755Z,62.24
2023-01-26T12:52:20.776Z,62.03